createdAt,value
2023-03-28T00:01:12.621Z,63.62
2023-03-28T00:03:41.819Z,63.42
2023-03-28T00:06:13.185Z,63.63
2023-03-28T00:08:42.303Z,63.48
2023-03-28T00:11:18.209Z,63.84
2023-03-28T00:13:47.765Z,63.69
2023-03-28T00:16:16.780Z,63.66
2023-03-28T00:18:46.206Z,63.96
2023-03-28T00:21:24.263Z,63.81
2023-03-28T00:23:55.171Z,63.84
2023-03-28T00:26:26.299Z,63.86
2023-03-28T00:28:56.196Z,63.94
2023-03-28T00:31:26.201Z,64.09
2023-03-28T00:33:56.120Z,63.79
2023-03-28T00:36:28.793Z,64.12
2023-03-28T00:38:58.498Z,63.73
2023-03-28T00:41:30.674Z,63.94
2023-03-28T00:44:00.721Z,64.02
2023-03-28T00:46:33.755Z,63.81
2023-03-28T00:49:06.780Z,64.00
2023-03-28T00:51:38.859Z,63.90
2023-03-28T00:54:12.467Z,63.91
2023-03-28T00:56:44.424Z,64.01
2023-03-28T00:59:18.127Z,63.84
2023-03-28T01:01:47.824Z,63.90
2023-03-28T01:04:20.163Z,63.92
2023-03-28T01:06:54.458Z,63.80
2023-03-28T01:09:24.806Z,63.74
2023-03-28T01:11:56.396Z,63.74
2023-03-28T01:14:28.533Z,63.73
2023-03-28T01:16:57.599Z,63.72
2023-03-28T01:19:42.221Z,63.64
2023-03-28T01:22:38.051Z,63.78
2023-03-28T01:25:39.145Z,63.97
2023-03-28T01:28:20.552Z,63.87
2023-03-28T01:31:07.940Z,63.73
2023-03-28T01:34:14.811Z,63.80
2023-03-28T01:37:02.637Z,63.67
2023-03-28T01:39:42.468Z,64.01
2023-03-28T01:42:20.136Z,63.96
2023-03-28T01:44:55.170Z,64.03
2023-03-28T01:47:32.833Z,63.55
2023-03-28T01:50:09.860Z,63.68
2023-03-28T01:52:46.540Z,63.91
2023-03-28T01:55:21.430Z,63.76
2023-03-28T01:58:01.454Z,63.84
2023-03-28T02:00:34.201Z,63.70
2023-03-28T02:03:10.951Z,63.67
2023-03-28T02:05:41.714Z,63.84
2023-03-28T02:08:12.949Z,63.64
2023-03-28T02:10:44.312Z,63.70
2023-03-28T02:13:17.465Z,63.60
2023-03-28T02:15:50.307Z,63.57
2023-03-28T02:18:25.022Z,63.40
2023-03-28T02:20:56.759Z,63.46
2023-03-28T02:23:30.601Z,63.66
2023-03-28T02:25:59.750Z,63.41
2023-03-28T02:28:31.837Z,63.47
2023-03-28T02:31:02.168Z,63.29
2023-03-28T02:33:37.320Z,63.18
2023-03-28T02:36:22.502Z,63.20
2023-03-28T02:39:01.996Z,63.30
2023-03-28T02:41:38.299Z,63.31
2023-03-28T02:44:21.578Z,62.81
2023-03-28T02:47:01.492Z,63.20
2023-03-28T02:49:50.533Z,62.89
2023-03-28T02:52:34.483Z,63.10
2023-03-28T02:55:12.889Z,62.74
2023-03-28T02:57:46.403Z,62.71
2023-03-28T03:00:18.609Z,62.86
2023-03-28T03:02:50.895Z,62.61
2023-03-28T03:05:21.046Z,62.90
2023-03-28T03:07:51.685Z,62.70
2023-03-28T03:10:21.473Z,62.63
2023-03-28T03:12:50.306Z,62.53
2023-03-28T03:15:19.406Z,62.31
2023-03-28T03:17:48.389Z,62.51
2023-03-28T03:20:18.568Z,62.31
2023-03-28T03:22:47.487Z,61.99
2023-03-28T03:25:16.671Z,61.84
2023-03-28T03:27:45.645Z,62.04
2023-03-28T03:30:14.916Z,62.04
2023-03-28T03:32:44.667Z,61.80
2023-03-28T03:35:13.729Z,61.94
2023-03-28T03:37:42.670Z,61.82
2023-03-28T03:40:12.291Z,61.76
2023-03-28T03:42:41.318Z,61.76
2023-03-28T03:45:12.809Z,61.88
2023-03-28T03:47:41.817Z,61.81
2023-03-28T03:50:13.153Z,61.72
2023-03-28T03:52:42.222Z,61.63
2023-03-28T03:55:11.706Z,61.69
2023-03-28T03:57:41.054Z,61.56
2023-03-28T04:00:12.710Z,61.37
2023-03-28T04:02:41.821Z,61.33
2023-03-28T04:05:11.333Z,61.52
2023-03-28T04:07:40.690Z,61.38
2023-03-28T04:10:11.042Z,61.26
2023-03-28T04:12:40.203Z,61.25
2023-03-28T04:15:11.087Z,61.14
2023-03-28T04:17:40.731Z,61.19
2023-03-28T04:20:14.690Z,61.12
2023-03-28T04:22:46.108Z,60.91
2023-03-28T04:25:17.419Z,60.82
2023-03-28T04:27:46.919Z,60.84
2023-03-28T04:30:17.218Z,60.68
2023-03-28T04:32:49.942Z,60.50
2023-03-28T04:35:18.967Z,60.42
2023-03-28T04:37:48.802Z,60.49
2023-03-28T04:40:18.016Z,60.54
2023-03-28T04:42:47.188Z,60.52
2023-03-28T04:45:17.995Z,60.26
2023-03-28T04:47:48.454Z,60.03
2023-03-28T04:50:17.705Z,60.05
2023-03-28T04:52:46.787Z,60.02
2023-03-28T04:55:16.134Z,59.76
2023-03-28T04:57:45.439Z,59.96
2023-03-28T05:00:16.483Z,59.56
2023-03-28T05:02:45.626Z,59.95
2023-03-28T05:05:15.389Z,59.91
2023-03-28T05:07:44.547Z,59.54
2023-03-28T05:10:14.263Z,59.55
2023-03-28T05:12:43.694Z,59.78
2023-03-28T05:15:22.936Z,59.73
2023-03-28T05:17:52.498Z,59.35
2023-03-28T05:20:21.824Z,59.39
2023-03-28T05:22:51.055Z,59.59
2023-03-28T05:25:21.374Z,59.38
2023-03-28T05:27:50.752Z,59.24
2023-03-28T05:30:20.610Z,59.30
2023-03-28T05:32:49.696Z,59.00
2023-03-28T05:35:18.965Z,59.19
2023-03-28T05:37:47.829Z,59.17
2023-03-28T05:40:16.945Z,59.29
2023-03-28T05:42:46.004Z,59.49
2023-03-28T05:45:15.179Z,59.39
2023-03-28T05:47:44.220Z,59.09
2023-03-28T05:50:13.274Z,59.01
2023-03-28T05:52:42.238Z,59.19
2023-03-28T05:55:11.414Z,59.12
2023-03-28T05:57:40.482Z,58.76
2023-03-28T06:00:13.253Z,59.00
2023-03-28T06:02:43.206Z,58.77
2023-03-28T06:05:13.612Z,58.95
2023-03-28T06:07:43.281Z,59.00
2023-03-28T06:10:14.978Z,59.13
2023-03-28T06:12:44.266Z,58.87
2023-03-28T06:15:13.572Z,58.72
2023-03-28T06:17:42.603Z,58.82
2023-03-28T06:20:12.876Z,58.59
2023-03-28T06:22:41.870Z,58.80
2023-03-28T06:25:11.570Z,58.91
2023-03-28T06:27:40.666Z,58.69
2023-03-28T06:30:12.179Z,58.82
2023-03-28T06:32:41.207Z,58.87
2023-03-28T06:35:10.869Z,58.90
2023-03-28T06:37:39.849Z,58.97
2023-03-28T06:40:10.561Z,58.99
2023-03-28T06:42:39.660Z,58.87
2023-03-28T06:45:10.936Z,58.76
2023-03-28T06:47:40.049Z,58.95
2023-03-28T06:50:10.655Z,59.06
2023-03-28T06:52:39.902Z,59.22
2023-03-28T06:55:10.150Z,59.24
2023-03-28T06:57:39.803Z,59.34
2023-03-28T07:00:11.313Z,59.59
2023-03-28T07:02:40.434Z,59.69
2023-03-28T07:05:10.779Z,60.00
2023-03-28T07:07:40.752Z,60.02
2023-03-28T07:10:11.046Z,59.78
2023-03-28T07:12:40.093Z,60.05
2023-03-28T07:15:10.962Z,59.94
2023-03-28T07:17:39.884Z,60.07
2023-03-28T07:20:10.395Z,60.09
2023-03-28T07:22:39.368Z,59.98
2023-03-28T07:25:09.764Z,59.03
2023-03-28T07:27:38.771Z,58.65
2023-03-28T07:30:09.972Z,59.08
2023-03-28T07:32:48.119Z,58.89
2023-03-28T07:35:21.469Z,58.87
2023-03-28T07:37:50.491Z,59.00
2023-03-28T07:40:19.570Z,59.12
2023-03-28T07:42:50.081Z,59.03
2023-03-28T07:45:19.080Z,59.16
2023-03-28T07:47:47.977Z,59.18
2023-03-28T07:50:17.298Z,59.24
2023-03-28T07:52:47.000Z,59.12
2023-03-28T07:55:16.709Z,59.16
2023-03-28T07:57:46.406Z,59.15
2023-03-28T08:00:17.087Z,59.47
2023-03-28T08:02:46.128Z,59.53
2023-03-28T08:05:15.446Z,59.54
2023-03-28T08:07:46.552Z,59.60
2023-03-28T08:10:15.698Z,59.82
2023-03-28T08:12:44.794Z,59.66
2023-03-28T08:15:13.769Z,59.48
2023-03-28T08:17:42.725Z,59.76
2023-03-28T08:20:13.278Z,59.64
2023-03-28T08:22:42.339Z,59.67
2023-03-28T08:25:12.125Z,59.76
2023-03-28T08:27:41.248Z,59.77
2023-03-28T08:30:11.304Z,59.52
2023-03-28T08:32:40.990Z,59.44
2023-03-28T08:35:10.548Z,59.26
2023-03-28T08:37:39.612Z,59.13
2023-03-28T08:40:15.567Z,58.93
2023-03-28T08:42:57.520Z,59.14
2023-03-28T08:45:38.334Z,59.18
2023-03-28T08:48:18.012Z,58.99
2023-03-28T08:50:50.952Z,59.11
2023-03-28T08:53:26.415Z,59.15
2023-03-28T08:55:57.391Z,58.88
2023-03-28T08:58:34.090Z,58.98
2023-03-28T09:01:03.773Z,58.93
2023-03-28T09:03:35.687Z,59.11
2023-03-28T09:06:15.650Z,59.11
2023-03-28T09:09:04.286Z,59.21
2023-03-28T09:11:45.678Z,58.88
2023-03-28T09:14:39.169Z,58.57
2023-03-28T09:17:14.364Z,58.52
2023-03-28T09:20:05.980Z,58.05
2023-03-28T09:22:44.832Z,58.40
2023-03-28T09:25:29.023Z,58.21
2023-03-28T09:28:06.541Z,58.35
2023-03-28T09:30:37.926Z,58.21
2023-03-28T09:33:15.535Z,58.20
2023-03-28T09:35:46.868Z,58.08
2023-03-28T09:38:21.808Z,58.04
2023-03-28T09:40:55.106Z,58.33
2023-03-28T09:43:31.435Z,58.08
2023-03-28T09:46:04.391Z,58.22
2023-03-28T09:48:35.751Z,58.27
2023-03-28T09:51:06.653Z,58.15
2023-03-28T09:53:37.730Z,57.98
2023-03-28T09:56:14.464Z,58.03
2023-03-28T09:58:51.707Z,57.96
2023-03-28T10:01:41.101Z,58.14
2023-03-28T10:04:13.735Z,58.23
2023-03-28T10:06:44.034Z,58.23
2023-03-28T10:09:21.789Z,58.11
2023-03-28T10:11:54.272Z,58.03
2023-03-28T10:14:35.622Z,57.86
2023-03-28T10:17:07.769Z,57.94
2023-03-28T10:19:40.540Z,57.99
2023-03-28T10:22:15.585Z,58.11
2023-03-28T10:24:47.387Z,58.24
2023-03-28T10:27:23.335Z,58.23
2023-03-28T10:29:54.848Z,57.80
2023-03-28T10:32:28.814Z,57.67
2023-03-28T10:35:03.036Z,57.70
2023-03-28T10:37:34.049Z,57.52
2023-03-28T10:40:07.178Z,57.29
2023-03-28T10:42:44.373Z,57.36
2023-03-28T10:45:23.231Z,57.16
2023-03-28T10:47:57.706Z,57.19
2023-03-28T10:50:36.656Z,57.18
2023-03-28T10:53:26.583Z,57.15
2023-03-28T10:56:10.329Z,57.05
2023-03-28T10:58:42.378Z,57.22
2023-03-28T11:01:18.882Z,56.93
2023-03-28T11:04:04.458Z,57.04
2023-03-28T11:06:43.589Z,56.84
2023-03-28T11:09:22.211Z,56.94
2023-03-28T11:12:02.927Z,56.99
2023-03-28T11:14:47.468Z,56.94
2023-03-28T11:17:29.039Z,56.92
2023-03-28T11:20:22.701Z,56.80
2023-03-28T11:23:06.483Z,56.49
2023-03-28T11:25:46.292Z,56.50
2023-03-28T11:28:26.420Z,56.45
2023-03-28T11:30:58.594Z,56.54
2023-03-28T11:33:32.530Z,56.50
2023-03-28T11:36:07.801Z,56.28
2023-03-28T11:38:40.843Z,56.45
2023-03-28T11:41:13.218Z,56.26
2023-03-28T11:43:47.510Z,56.09
2023-03-28T11:46:22.713Z,56.13
2023-03-28T11:49:00.333Z,56.17
2023-03-28T11:51:36.012Z,56.24
2023-03-28T11:54:12.020Z,55.98
2023-03-28T11:56:51.904Z,56.20
2023-03-28T11:59:27.297Z,56.12
2023-03-28T12:02:05.839Z,56.19
2023-03-28T12:04:42.548Z,56.32
2023-03-28T12:07:18.531Z,56.20
2023-03-28T12:10:00.502Z,56.07
2023-03-28T12:12:33.272Z,56.06
2023-03-28T12:15:06.855Z,56.12
2023-03-28T12:17:40.553Z,56.15
2023-03-28T12:20:28.457Z,55.96
2023-03-28T12:23:02.824Z,55.86
2023-03-28T12:25:38.786Z,55.91
2023-03-28T12:28:15.825Z,55.87
2023-03-28T12:30:50.951Z,55.65
2023-03-28T12:33:28.798Z,55.63
2023-03-28T12:36:07.072Z,55.55
2023-03-28T12:38:42.505Z,55.48
2023-03-28T12:41:16.729Z,55.53
2023-03-28T12:43:51.302Z,55.52
2023-03-28T12:46:26.092Z,55.58
2023-03-28T12:48:59.958Z,55.54
2023-03-28T12:51:34.900Z,55.30
2023-03-28T12:54:22.370Z,55.27
2023-03-28T12:57:10.627Z,55.35
2023-03-28T12:59:56.660Z,55.08
2023-03-28T13:02:31.545Z,55.12
2023-03-28T13:05:09.822Z,55.27
2023-03-28T13:07:56.103Z,55.22
2023-03-28T13:10:35.161Z,55.21
2023-03-28T13:13:19.031Z,55.11
2023-03-28T13:16:01.595Z,55.10
2023-03-28T13:18:33.304Z,55.30
2023-03-28T13:21:06.592Z,55.33
2023-03-28T13:23:46.288Z,55.12
2023-03-28T13:26:15.346Z,54.86
2023-03-28T13:28:46.757Z,54.68
2023-03-28T13:31:24.244Z,54.57
2023-03-28T13:33:59.306Z,54.74
2023-03-28T13:36:30.213Z,54.66
2023-03-28T13:39:09.471Z,54.37
2023-03-28T13:41:59.815Z,54.31
2023-03-28T13:44:39.716Z,54.22
2023-03-28T13:47:14.582Z,54.25
2023-03-28T13:49:48.890Z,54.07
2023-03-28T13:52:21.701Z,54.10
2023-03-28T13:54:53.811Z,53.65
2023-03-28T13:57:25.756Z,53.65
2023-03-28T13:59:58.969Z,53.76
2023-03-28T14:02:38.295Z,53.76
2023-03-28T14:05:19.939Z,53.59
2023-03-28T14:07:50.222Z,53.48
2023-03-28T14:10:28.230Z,53.45
2023-03-28T14:13:01.122Z,53.50
2023-03-28T14:15:33.236Z,53.32
2023-03-28T14:18:03.691Z,53.38
2023-03-28T14:20:34.151Z,53.42
2023-03-28T14:23:04.974Z,53.30
2023-03-28T14:25:34.408Z,53.57
2023-03-28T14:28:08.851Z,53.34
2023-03-28T14:30:42.605Z,53.30
2023-03-28T14:33:21.020Z,53.30
2023-03-28T14:36:01.108Z,53.48
2023-03-28T14:38:33.010Z,53.35
2023-03-28T14:41:08.981Z,53.28
2023-03-28T14:43:38.176Z,53.38
2023-03-28T14:46:10.406Z,53.32
2023-03-28T14:48:41.696Z,53.21
2023-03-28T14:51:13.698Z,53.36
2023-03-28T14:53:46.739Z,53.55
2023-03-28T14:56:22.067Z,53.58
2023-03-28T14:58:52.922Z,53.54
2023-03-28T15:01:24.078Z,53.54
2023-03-28T15:03:57.917Z,53.65
2023-03-28T15:06:28.637Z,53.76
2023-03-28T15:09:00.458Z,53.66
2023-03-28T15:11:32.282Z,53.71
2023-03-28T15:14:04.313Z,53.87
2023-03-28T15:16:38.906Z,54.06
2023-03-28T15:19:17.890Z,54.12
2023-03-28T15:21:53.509Z,54.18
2023-03-28T15:24:24.939Z,53.97
2023-03-28T15:26:57.898Z,53.28
2023-03-28T15:29:29.136Z,52.99
2023-03-28T15:32:04.310Z,53.28
2023-03-28T15:34:44.369Z,53.32
2023-03-28T15:37:18.490Z,53.57
2023-03-28T15:39:50.441Z,53.26
2023-03-28T15:42:36.586Z,53.01
2023-03-28T15:45:23.778Z,53.12
2023-03-28T15:47:55.023Z,53.49
2023-03-28T15:50:32.632Z,53.65
2023-03-28T15:53:05.115Z,53.40
2023-03-28T15:55:35.101Z,53.28
2023-03-28T15:58:06.204Z,53.39
2023-03-28T16:00:41.807Z,53.70
2023-03-28T16:03:35.186Z,53.52
2023-03-28T16:06:31.574Z,53.93
2023-03-28T16:09:18.535Z,54.04
2023-03-28T16:11:50.174Z,54.08
2023-03-28T16:14:20.528Z,54.27
2023-03-28T16:16:54.595Z,54.63
2023-03-28T16:19:25.937Z,54.25
2023-03-28T16:21:55.228Z,54.57
2023-03-28T16:24:24.856Z,54.84
2023-03-28T16:26:53.982Z,54.84
2023-03-28T16:29:23.261Z,54.90
2023-03-28T16:31:52.274Z,55.07
2023-03-28T16:34:21.349Z,55.08
2023-03-28T16:36:50.625Z,54.99
2023-03-28T16:39:19.686Z,55.26
2023-03-28T16:41:48.580Z,55.05
2023-03-28T16:44:17.469Z,55.17
2023-03-28T16:46:46.428Z,55.34
2023-03-28T16:49:16.013Z,55.53
2023-03-28T16:51:45.653Z,55.42
2023-03-28T16:54:14.917Z,55.63
2023-03-28T16:56:43.968Z,55.82
2023-03-28T16:59:13.226Z,55.89
2023-03-28T17:01:45.690Z,56.12
2023-03-28T17:04:14.934Z,56.20
2023-03-28T17:06:44.351Z,56.34
2023-03-28T17:09:13.323Z,56.09
2023-03-28T17:11:42.527Z,56.39
2023-03-28T17:14:11.472Z,56.07
2023-03-28T17:16:40.848Z,56.27
2023-03-28T17:19:09.811Z,56.39
2023-03-28T17:21:38.685Z,56.32
2023-03-28T17:24:10.837Z,56.19
2023-03-28T17:26:40.024Z,56.55
2023-03-28T17:29:11.366Z,56.26
2023-03-28T17:31:40.377Z,56.44
2023-03-28T17:34:10.582Z,56.53
2023-03-28T17:36:40.507Z,56.65
2023-03-28T17:39:13.537Z,56.93
2023-03-28T17:41:45.314Z,56.90
2023-03-28T17:44:14.393Z,56.79
2023-03-28T17:46:43.971Z,56.92
2023-03-28T17:49:12.943Z,57.03
2023-03-28T17:51:42.132Z,56.95
2023-03-28T17:54:14.431Z,56.87
2023-03-28T17:56:44.065Z,57.02
2023-03-28T17:59:13.400Z,57.01
2023-03-28T18:01:42.466Z,56.86
2023-03-28T18:04:12.458Z,57.17
2023-03-28T18:06:41.647Z,57.28
2023-03-28T18:09:11.047Z,57.11
2023-03-28T18:11:40.933Z,57.36
2023-03-28T18:14:10.755Z,57.34
2023-03-28T18:16:40.135Z,57.26
2023-03-28T18:19:16.926Z,57.65
2023-03-28T18:21:48.854Z,57.49
2023-03-28T18:24:19.928Z,57.53
2023-03-28T18:26:49.574Z,57.23
2023-03-28T18:29:18.944Z,57.53
2023-03-28T18:31:48.092Z,57.38
2023-03-28T18:34:17.479Z,57.28
2023-03-28T18:36:47.693Z,57.49
2023-03-28T18:39:16.858Z,57.42
2023-03-28T18:41:46.050Z,57.34
2023-03-28T18:44:15.258Z,57.38
2023-03-28T18:46:44.464Z,57.40
2023-03-28T18:49:13.630Z,57.63
2023-03-28T18:51:42.767Z,57.66
2023-03-28T18:54:13.099Z,57.56
2023-03-28T18:56:46.013Z,57.27
2023-03-28T18:59:15.398Z,57.39
2023-03-28T19:01:50.647Z,57.61
2023-03-28T19:04:20.559Z,57.81
2023-03-28T19:06:51.263Z,57.65
2023-03-28T19:09:20.635Z,57.69
2023-03-28T19:11:54.583Z,58.01
2023-03-28T19:14:24.163Z,57.97
2023-03-28T19:16:53.397Z,57.96
2023-03-28T19:19:23.638Z,57.94
2023-03-28T19:21:52.723Z,57.90
2023-03-28T19:24:22.943Z,57.85
2023-03-28T19:26:52.725Z,57.99
2023-03-28T19:29:22.125Z,57.89
2023-03-28T19:31:52.299Z,57.87
2023-03-28T19:34:21.503Z,58.12
2023-03-28T19:36:51.239Z,57.83
2023-03-28T19:39:20.598Z,57.84
2023-03-28T19:41:49.461Z,57.74
2023-03-28T19:44:18.438Z,57.82
2023-03-28T19:46:47.483Z,57.89
2023-03-28T19:49:16.704Z,57.92
2023-03-28T19:51:45.652Z,58.23
2023-03-28T19:54:14.705Z,58.07
2023-03-28T19:56:44.257Z,57.76
2023-03-28T19:59:13.520Z,57.75
2023-03-28T20:01:42.674Z,57.99
2023-03-28T20:04:11.931Z,58.06
2023-03-28T20:06:41.011Z,58.17
2023-03-28T20:09:10.333Z,57.98
2023-03-28T20:11:41.453Z,58.02
2023-03-28T20:14:10.813Z,58.45
2023-03-28T20:16:39.716Z,58.43
2023-03-28T20:19:08.678Z,58.64
2023-03-28T20:21:37.728Z,58.79
2023-03-28T20:24:08.152Z,58.87
2023-03-28T20:26:37.132Z,58.88
2023-03-28T20:29:09.738Z,58.96
2023-03-28T20:31:38.752Z,59.06
2023-03-28T20:34:07.774Z,59.16
2023-03-28T20:36:37.516Z,59.26
2023-03-28T20:39:06.451Z,59.47
2023-03-28T20:41:36.901Z,59.55
2023-03-28T20:44:05.788Z,59.84
2023-03-28T20:46:37.447Z,59.70
2023-03-28T20:49:07.299Z,59.72
2023-03-28T20:51:39.032Z,59.89
2023-03-28T20:54:09.091Z,59.95
2023-03-28T20:56:38.089Z,60.05
2023-03-28T20:59:07.260Z,60.11
2023-03-28T21:01:45.316Z,60.20
2023-03-28T21:04:14.503Z,60.09
2023-03-28T21:06:45.439Z,60.15
2023-03-28T21:09:15.507Z,60.11
2023-03-28T21:11:44.776Z,59.98
2023-03-28T21:14:14.836Z,60.26
2023-03-28T21:16:44.748Z,60.23
2023-03-28T21:19:13.956Z,60.19
2023-03-28T21:21:42.975Z,60.15
2023-03-28T21:24:11.973Z,60.25
2023-03-28T21:26:41.219Z,60.39
2023-03-28T21:29:10.192Z,60.53
2023-03-28T21:31:39.254Z,60.65
2023-03-28T21:34:08.423Z,60.77
2023-03-28T21:36:37.322Z,60.95
2023-03-28T21:39:07.364Z,61.06
2023-03-28T21:41:37.578Z,61.28
2023-03-28T21:44:06.794Z,61.36
2023-03-28T21:46:35.856Z,61.19
2023-03-28T21:49:05.005Z,61.39
2023-03-28T21:51:35.504Z,61.47
2023-03-28T21:54:05.255Z,61.63
2023-03-28T21:56:33.810Z,61.62
2023-03-28T21:59:02.824Z,61.68
2023-03-28T22:01:31.867Z,61.70
2023-03-28T22:04:00.916Z,61.72
2023-03-28T22:06:29.980Z,61.83
2023-03-28T22:08:59.069Z,61.84
2023-03-28T22:11:28.602Z,62.10
2023-03-28T22:14:01.690Z,61.75
2023-03-28T22:16:32.996Z,62.00
2023-03-28T22:19:02.401Z,62.09
2023-03-28T22:21:31.791Z,62.08
2023-03-28T22:24:02.938Z,62.01
2023-03-28T22:26:31.770Z,62.17
2023-03-28T22:29:00.736Z,62.20
2023-03-28T22:31:30.177Z,62.10
2023-03-28T22:33:59.197Z,62.09
2023-03-28T22:36:28.263Z,62.16
2023-03-28T22:38:57.339Z,62.07
2023-03-28T22:41:31.249Z,62.16
2023-03-28T22:44:00.255Z,62.21
2023-03-28T22:46:29.363Z,62.31
2023-03-28T22:48:58.699Z,62.28
2023-03-28T22:51:29.268Z,62.35
2023-03-28T22:54:01.218Z,62.20
2023-03-28T22:56:30.148Z,62.17
2023-03-28T22:59:00.529Z,62.09
2023-03-28T23:01:29.683Z,62.21
2023-03-28T23:03:58.667Z,62.21
2023-03-28T23:06:28.091Z,61.99
2023-03-28T23:08:58.138Z,62.15
2023-03-28T23:11:27.339Z,62.02
2023-03-28T23:13:56.357Z,62.04
2023-03-28T23:16:25.420Z,62.00
2023-03-28T23:18:54.652Z,61.91
2023-03-28T23:21:24.128Z,61.79
2023-03-28T23:23:53.929Z,61.71
2023-03-28T23:26:23.134Z,61.41
2023-03-28T23:28:52.050Z,61.27
2023-03-28T23:31:21.186Z,61.17
2023-03-28T23:33:50.522Z,61.00
2023-03-28T23:36:20.395Z,61.24
2023-03-28T23:38:49.681Z,60.91
2023-03-28T23:41:18.647Z,60.74
2023-03-28T23:43:47.621Z,60.60
2023-03-28T23:46:16.595Z,60.43
2023-03-28T23:48:45.496Z,60.47
2023-03-28T23:51:14.816Z,60.44
2023-03-28T23:53:43.678Z,60.47
2023-03-28T23:56:12.827Z,60.71
2023-03-28T23:58:42.279Z,60.62
